Time;durP1;ratioP1;P1;durP2;ratioP2;P2;SDS_P1;SDS_P2;PMS_P1;PMS_P2;Temp;Humidity;BMP_temperature;BMP_pressure;BME280_temperature;BME280_humidity;BME280_pressure;Samples;Min_cycle;Max_cycle;Signal;HPM_P1;HPM_P2
2022/10/20 00:01:52;;;;;;;6.35;3.80;;;15.90;52.90;;;;;;5046756;28;20021;-77
2022/10/20 00:04:18;;;;;;;7.47;3.95;;;15.80;52.70;;;;;;5024995;28;20121;-77
2022/10/20 00:06:44;;;;;;;7.32;3.80;;;15.80;52.70;;;;;;5044572;28;20031;-76
2022/10/20 00:09:09;;;;;;;7.00;4.18;;;15.80;52.70;;;;;;5041826;28;20053;-77
2022/10/20 00:11:35;;;;;;;8.15;4.63;;;15.70;52.70;;;;;;5025122;28;20033;-77
2022/10/20 00:14:02;;;;;;;12.10;4.82;;;15.70;52.80;;;;;;5042740;28;20471;-77
2022/10/20 00:16:30;;;;;;;7.13;3.53;;;15.60;52.90;;;;;;5043022;28;20180;-76
2022/10/20 00:18:57;;;;;;;7.65;4.65;;;15.60;53.10;;;;;;5042446;28;20377;-77
2022/10/20 00:21:25;;;;;;;7.35;4.40;;;15.50;53.30;;;;;;5041116;28;20422;-78
2022/10/20 00:23:53;;;;;;;5.50;3.90;;;15.50;53.40;;;;;;5027657;28;20061;-77
2022/10/20 00:26:22;;;;;;;11.30;4.90;;;15.40;53.50;;;;;;5025749;28;20078;-78
2022/10/20 00:28:48;;;;;;;9.82;4.47;;;15.30;53.70;;;;;;5025548;28;20029;-77
2022/10/20 00:31:15;;;;;;;8.88;4.88;;;15.30;53.80;;;;;;5046127;28;20103;-77
2022/10/20 00:33:41;;;;;;;7.82;4.18;;;15.30;53.90;;;;;;5025730;28;20388;-77
2022/10/20 00:36:10;;;;;;;7.75;4.70;;;15.30;53.90;;;;;;5025491;28;20021;-77
2022/10/20 00:38:36;;;;;;;9.40;4.65;;;15.30;53.90;;;;;;5041086;28;20477;-77
2022/10/20 00:41:02;;;;;;;7.63;4.43;;;15.30;53.90;;;;;;5041767;28;20020;-78
2022/10/20 00:43:51;;;;;;;7.43;4.60;;;15.30;53.90;;;;;;5043086;28;20025;-77
2022/10/20 00:46:38;;;;;;;8.20;4.80;;;15.30;53.90;;;;;;5032273;28;20028;-77
2022/10/20 00:49:19;;;;;;;10.38;5.70;;;15.30;53.80;;;;;;5042999;28;20039;-77
2022/10/20 00:51:45;;;;;;;8.07;5.00;;;15.20;53.80;;;;;;5042965;28;20078;-76
2022/10/20 00:54:25;;;;;;;10.77;4.88;;;15.20;53.90;;;;;;5043526;28;20036;-77
2022/10/20 00:56:54;;;;;;;7.97;5.18;;;15.10;54.00;;;;;;5043183;28;20021;-78
2022/10/20 00:59:25;;;;;;;7.15;4.85;;;15.00;54.20;;;;;;5020770;28;20053;-77
2022/10/20 01:01:51;;;;;;;7.07;4.97;;;14.90;54.40;;;;;;5026317;28;20053;-77
2022/10/20 01:04:17;;;;;;;7.68;4.80;;;14.90;54.60;;;;;;5021614;28;20060;-77
2022/10/20 01:06:43;;;;;;;10.30;4.68;;;14.80;54.80;;;;;;5021408;28;20659;-77
2022/10/20 01:09:09;;;;;;;5.82;4.50;;;14.70;55.00;;;;;;5022978;28;20100;-76
2022/10/20 01:11:43;;;;;;;9.48;4.50;;;14.60;55.20;;;;;;5020160;28;20140;-77
2022/10/20 01:14:25;;;;;;;11.52;5.60;;;14.60;55.40;;;;;;5019248;28;20026;-77
2022/10/20 01:17:09;;;;;;;6.53;4.80;;;14.50;55.60;;;;;;5019490;28;20291;-78
2022/10/20 01:19:57;;;;;;;8.05;4.50;;;14.50;55.70;;;;;;5021116;28;20481;-77
2022/10/20 01:22:40;;;;;;;7.80;4.55;;;14.40;55.80;;;;;;5023572;28;20017;-77
2022/10/20 01:25:06;;;;;;;11.88;5.43;;;14.30;56.10;;;;;;5023858;28;20030;-76
2022/10/20 01:27:43;;;;;;;7.28;4.75;;;14.30;56.30;;;;;;5020181;28;20029;-78
2022/10/20 01:30:15;;;;;;;9.82;5.38;;;14.20;56.60;;;;;;5025114;28;20074;-77
2022/10/20 01:32:52;;;;;;;7.07;5.05;;;14.20;56.80;;;;;;5020624;28;20129;-78
2022/10/20 01:35:35;;;;;;;8.43;5.10;;;14.10;56.90;;;;;;5023309;28;20033;-77
2022/10/20 01:38:18;;;;;;;11.73;4.93;;;14.10;57.00;;;;;;5023239;28;20174;-77
2022/10/20 01:41:11;;;;;;;8.35;5.03;;;14.10;57.10;;;;;;5029557;28;20524;-76
2022/10/20 01:43:42;;;;;;;8.65;4.60;;;14.10;57.10;;;;;;5020897;28;20488;-77
2022/10/20 01:46:10;;;;;;;10.60;4.90;;;14.10;57.00;;;;;;5020392;28;20026;-77
2022/10/20 01:48:39;;;;;;;8.07;5.40;;;14.00;57.00;;;;;;5021733;28;20029;-77
2022/10/20 01:51:05;;;;;;;14.23;5.13;;;14.00;57.10;;;;;;5025217;28;20029;-77
2022/10/20 01:53:31;;;;;;;19.63;4.70;;;13.90;57.20;;;;;;5026975;28;20045;-77
2022/10/20 01:55:59;;;;;;;8.15;5.38;;;13.90;57.20;;;;;;5040605;28;20418;-77
2022/10/20 01:58:28;;;;;;;11.35;5.50;;;13.90;57.30;;;;;;5023097;28;20084;-77
2022/10/20 02:01:01;;;;;;;7.85;5.32;;;13.80;57.50;;;;;;5045639;28;20838;-76
2022/10/20 02:03:27;;;;;;;14.30;5.40;;;13.80;57.50;;;;;;5026353;28;20523;-76
2022/10/20 02:06:18;;;;;;;10.30;5.25;;;13.70;57.60;;;;;;5028166;28;20029;-78
2022/10/20 02:09:29;;;;;;;10.23;5.30;;;13.70;57.60;;;;;;5046063;28;20033;-76
2022/10/20 02:12:27;;;;;;;7.07;4.93;;;13.70;57.50;;;;;;4973630;28;20490;-78
2022/10/20 02:14:55;;;;;;;12.13;5.55;;;13.60;57.50;;;;;;4953379;28;20077;-73
2022/10/20 02:17:21;;;;;;;8.13;4.40;;;13.60;57.40;;;;;;4973634;28;20030;-74
2022/10/20 02:19:51;;;;;;;9.63;5.22;;;13.60;57.30;;;;;;4973466;28;20034;-74
2022/10/20 02:22:18;;;;;;;10.02;5.47;;;13.50;57.20;;;;;;4973450;28;20034;-74
2022/10/20 02:24:46;;;;;;;8.85;5.03;;;13.50;57.20;;;;;;4957194;28;20031;-74
2022/10/20 02:27:23;;;;;;;8.90;4.82;;;13.50;57.10;;;;;;4954422;28;20514;-74
2022/10/20 02:30:05;;;;;;;6.22;4.22;;;13.50;57.10;;;;;;4972974;28;20033;-74
2022/10/20 02:32:33;;;;;;;11.90;4.78;;;13.40;56.90;;;;;;4973394;28;20031;-74
2022/10/20 02:35:02;;;;;;;8.25;4.95;;;13.40;57.00;;;;;;4973253;28;20038;-74
2022/10/20 02:37:28;;;;;;;6.07;4.32;;;13.40;57.00;;;;;;4973146;28;20030;-74
2022/10/20 02:39:54;;;;;;;12.25;4.97;;;13.40;57.00;;;;;;4973050;28;20062;-73
2022/10/20 02:42:22;;;;;;;7.57;4.80;;;13.40;57.10;;;;;;4973226;28;20030;-74
2022/10/20 02:44:50;;;;;;;5.18;4.10;;;13.30;57.00;;;;;;4973019;28;20391;-74
2022/10/20 02:47:16;;;;;;;6.63;3.80;;;13.30;57.00;;;;;;5008935;28;20052;-75
2022/10/20 02:49:45;;;;;;;6.55;3.88;;;13.30;57.00;;;;;;5044640;28;20026;-74
2022/10/20 02:52:13;;;;;;;8.80;4.60;;;13.30;57.00;;;;;;5025249;28;20366;-75
2022/10/20 02:54:42;;;;;;;7.90;4.20;;;13.20;57.00;;;;;;5044463;28;20047;-78
2022/10/20 02:57:08;;;;;;;5.20;3.95;;;13.20;57.00;;;;;;5045085;28;20052;-77
2022/10/20 02:59:37;;;;;;;13.10;4.72;;;13.20;57.10;;;;;;5044359;28;20418;-77
2022/10/20 03:02:03;;;;;;;8.98;4.50;;;13.10;57.10;;;;;;5045925;28;20025;-77
2022/10/20 03:04:28;;;;;;;9.98;4.53;;;13.10;57.10;;;;;;5042793;28;20035;-77
2022/10/20 03:06:57;;;;;;;7.00;4.60;;;13.10;57.00;;;;;;5047586;28;20039;-76
2022/10/20 03:09:23;;;;;;;6.53;4.30;;;13.10;57.10;;;;;;5029139;28;20408;-77
2022/10/20 03:11:48;;;;;;;9.52;4.50;;;13.00;57.00;;;;;;5045874;28;20021;-78
2022/10/20 03:14:17;;;;;;;7.63;4.32;;;13.00;57.00;;;;;;5048582;28;20117;-77
2022/10/20 03:16:43;;;;;;;12.52;4.82;;;13.00;57.00;;;;;;5047983;28;20029;-77
2022/10/20 03:19:09;;;;;;;7.38;4.32;;;13.00;57.10;;;;;;5044921;28;20021;-78
2022/10/20 03:21:37;;;;;;;7.78;4.57;;;13.00;57.10;;;;;;5050052;28;21063;-76
2022/10/20 03:24:05;;;;;;;8.15;4.30;;;13.00;57.30;;;;;;5050282;28;20039;-77
2022/10/20 03:26:32;;;;;;;8.75;4.25;;;12.90;57.30;;;;;;5030714;28;20025;-77
2022/10/20 03:29:00;;;;;;;6.70;4.20;;;12.90;57.40;;;;;;5027453;28;20024;-78
2022/10/20 03:31:26;;;;;;;8.80;4.53;;;12.90;57.40;;;;;;5053476;28;20031;-77
2022/10/20 03:34:11;;;;;;;10.52;4.95;;;12.80;57.40;;;;;;5047299;28;20100;-77
2022/10/20 03:36:40;;;;;;;6.20;4.88;;;12.80;57.40;;;;;;5029795;28;20033;-77
2022/10/20 03:39:08;;;;;;;7.60;4.10;;;12.80;57.40;;;;;;5048364;28;20392;-78
2022/10/20 03:41:36;;;;;;;5.97;4.13;;;12.80;57.40;;;;;;5046177;28;20029;-77
2022/10/20 03:44:07;;;;;;;7.43;4.72;;;12.80;57.50;;;;;;5028109;28;20389;-77
2022/10/20 03:46:35;;;;;;;9.30;5.15;;;12.70;57.60;;;;;;5033874;28;20107;-77
2022/10/20 03:49:04;;;;;;;8.68;5.22;;;12.70;57.70;;;;;;5047045;28;20414;-77
2022/10/20 03:51:30;;;;;;;6.95;5.03;;;12.70;57.70;;;;;;5044287;28;20066;-78
2022/10/20 03:53:58;;;;;;;6.68;4.68;;;12.60;57.70;;;;;;5049930;28;20104;-77
2022/10/20 03:56:24;;;;;;;6.97;4.82;;;12.60;57.80;;;;;;5044030;28;20397;-77
2022/10/20 03:58:50;;;;;;;8.25;4.50;;;12.60;57.80;;;;;;5045910;28;20036;-78
2022/10/20 04:01:19;;;;;;;8.52;5.00;;;12.60;57.90;;;;;;5047686;28;20052;-77
2022/10/20 04:03:47;;;;;;;9.38;4.53;;;12.60;57.90;;;;;;5046173;28;20026;-76
2022/10/20 04:06:14;;;;;;;11.05;4.85;;;12.60;57.90;;;;;;5030178;28;20032;-78
2022/10/20 04:08:44;;;;;;;8.30;5.13;;;12.60;58.00;;;;;;5030964;28;20120;-78
2022/10/20 04:11:10;;;;;;;6.65;4.88;;;12.50;57.90;;;;;;5046976;28;20095;-77
2022/10/20 04:13:41;;;;;;;8.75;4.70;;;12.50;57.90;;;;;;5027076;28;20121;-77
2022/10/20 04:16:09;;;;;;;8.30;5.43;;;12.50;57.90;;;;;;5044410;28;20017;-78
2022/10/20 04:18:35;;;;;;;6.25;4.80;;;12.50;58.00;;;;;;5029862;28;20028;-77
2022/10/20 04:21:01;;;;;;;7.78;4.65;;;12.50;57.90;;;;;;5046740;28;20036;-78
2022/10/20 04:23:30;;;;;;;6.22;4.60;;;12.50;58.00;;;;;;5044205;28;20036;-76
2022/10/20 04:25:55;;;;;;;10.95;5.22;;;12.50;58.00;;;;;;5041844;28;20029;-77
2022/10/20 04:28:30;;;;;;;10.27;4.80;;;12.40;57.90;;;;;;5028126;28;20487;-77
2022/10/20 04:30:59;;;;;;;8.98;5.03;;;12.40;58.00;;;;;;5032534;28;20033;-77
2022/10/20 04:33:25;;;;;;;7.82;5.07;;;12.40;58.00;;;;;;5044653;28;20159;-76
2022/10/20 04:36:06;;;;;;;10.55;5.03;;;12.40;58.00;;;;;;5045493;28;20508;-78
2022/10/20 04:38:33;;;;;;;7.90;4.75;;;12.40;58.10;;;;;;5046274;28;20071;-77
2022/10/20 04:41:03;;;;;;;10.32;5.43;;;12.40;58.00;;;;;;5044917;28;20023;-78
2022/10/20 04:43:29;;;;;;;12.23;6.38;;;12.40;58.00;;;;;;5044737;28;20025;-77
2022/10/20 04:46:07;;;;;;;12.07;6.03;;;12.40;58.00;;;;;;5046413;28;20029;-77
2022/10/20 04:48:36;;;;;;;10.70;5.38;;;12.40;57.90;;;;;;5043420;28;20033;-78
2022/10/20 04:51:06;;;;;;;13.93;5.53;;;12.40;57.90;;;;;;5029582;28;20022;-78
2022/10/20 04:53:33;;;;;;;10.38;5.15;;;12.40;58.00;;;;;;5026740;28;20022;-78
2022/10/20 04:56:02;;;;;;;9.88;5.07;;;12.40;57.90;;;;;;5044956;28;20020;-79
2022/10/20 04:58:27;;;;;;;10.15;5.18;;;12.40;57.90;;;;;;5045605;28;20029;-78
2022/10/20 05:00:55;;;;;;;8.70;4.95;;;12.30;58.60;;;;;;5048502;28;20037;-78
2022/10/20 05:03:21;;;;;;;6.88;4.70;;;12.30;57.90;;;;;;5028778;28;20032;-78
2022/10/20 05:05:50;;;;;;;7.15;4.82;;;12.30;58.10;;;;;;5045617;28;20024;-79
2022/10/20 05:08:16;;;;;;;10.85;5.15;;;12.30;58.00;;;;;;5032557;28;20036;-76
2022/10/20 05:10:42;;;;;;;7.68;4.65;;;12.30;58.00;;;;;;5030785;28;20029;-78
2022/10/20 05:13:09;;;;;;;10.48;4.75;;;12.30;58.10;;;;;;5031144;28;20044;-77
2022/10/20 05:15:34;;;;;;;6.57;4.00;;;12.30;58.20;;;;;;5047953;28;20060;-79
2022/10/20 05:18:03;;;;;;;9.45;5.10;;;12.30;58.10;;;;;;5028472;28;20029;-79
2022/10/20 05:20:29;;;;;;;9.52;5.13;;;12.20;58.10;;;;;;5046068;28;20036;-78
2022/10/20 05:22:57;;;;;;;7.30;4.68;;;12.30;58.20;;;;;;5029470;28;20029;-79
2022/10/20 05:25:23;;;;;;;12.90;4.88;;;12.30;58.10;;;;;;5046104;28;20025;-78
2022/10/20 05:27:48;;;;;;;12.68;5.80;;;12.30;58.00;;;;;;5049353;28;20041;-78
2022/10/20 05:30:14;;;;;;;11.23;4.75;;;12.20;57.70;;;;;;5049145;28;20026;-79
2022/10/20 05:32:40;;;;;;;15.20;5.45;;;12.30;57.70;;;;;;5050199;28;20040;-79
2022/10/20 05:35:06;;;;;;;10.98;5.38;;;12.20;57.60;;;;;;5032400;28;20048;-80
2022/10/20 05:37:34;;;;;;;17.98;4.93;;;12.30;57.60;;;;;;5045747;28;20021;-79
2022/10/20 05:40:02;;;;;;;11.35;5.03;;;12.30;57.60;;;;;;5055744;28;20027;-79
2022/10/20 05:42:28;;;;;;;10.15;5.50;;;12.30;57.50;;;;;;5021420;28;20035;-78
2022/10/20 05:44:55;;;;;;;7.55;4.90;;;12.30;57.60;;;;;;5033322;28;20465;-79
2022/10/20 05:47:20;;;;;;;9.02;4.65;;;12.30;57.60;;;;;;5043922;28;20071;-79
2022/10/20 05:49:47;;;;;;;8.23;5.13;;;12.30;57.50;;;;;;5025930;28;20080;-78
2022/10/20 05:52:13;;;;;;;7.30;5.00;;;12.30;57.50;;;;;;5050795;28;20491;-79
2022/10/20 05:54:41;;;;;;;9.43;4.60;;;12.30;57.40;;;;;;5038688;28;20025;-78
2022/10/20 05:57:07;;;;;;;8.98;5.15;;;12.30;57.40;;;;;;5031424;28;20091;-78
2022/10/20 05:59:33;;;;;;;7.93;5.00;;;12.30;57.40;;;;;;5046546;28;20045;-77
2022/10/20 06:01:59;;;;;;;7.80;4.43;;;12.40;57.50;;;;;;5046744;28;20078;-77
2022/10/20 06:04:26;;;;;;;12.35;4.30;;;12.40;57.50;;;;;;5054974;28;20036;-79
2022/10/20 06:06:53;;;;;;;6.97;4.93;;;12.40;57.60;;;;;;5022184;28;20017;-78
2022/10/20 06:09:21;;;;;;;8.98;4.53;;;12.40;57.50;;;;;;5029444;28;20041;-78
2022/10/20 06:11:47;;;;;;;11.13;4.65;;;12.50;57.50;;;;;;5050426;28;20029;-78
2022/10/20 06:14:14;;;;;;;13.20;4.43;;;12.50;57.40;;;;;;5041018;28;20504;-78
2022/10/20 06:16:40;;;;;;;7.45;4.50;;;12.50;57.40;;;;;;5038547;28;20033;-78
2022/10/20 06:19:08;;;;;;;12.48;4.65;;;12.60;57.40;;;;;;5031203;28;20025;-79
2022/10/20 06:21:36;;;;;;;10.23;4.63;;;12.60;57.30;;;;;;5045638;28;20021;-78
2022/10/20 06:24:04;;;;;;;8.18;5.32;;;12.70;57.10;;;;;;5041150;28;20112;-77
2022/10/20 06:26:32;;;;;;;11.48;5.15;;;12.70;56.90;;;;;;5051380;28;20311;-79
2022/10/20 06:28:59;;;;;;;10.40;5.15;;;12.70;56.80;;;;;;5021894;28;20032;-80
2022/10/20 06:31:30;;;;;;;8.50;4.88;;;12.70;56.70;;;;;;5051833;28;20013;-79
2022/10/20 06:33:57;;;;;;;9.70;4.72;;;12.80;56.60;;;;;;5054705;28;20033;-78
2022/10/20 06:36:24;;;;;;;10.45;4.18;;;12.80;56.30;;;;;;5019279;28;20025;-79
2022/10/20 06:38:59;;;;;;;6.30;4.03;;;12.90;56.40;;;;;;5050566;28;20025;-79
2022/10/20 06:41:26;;;;;;;9.82;4.30;;;12.90;56.10;;;;;;5025643;28;20049;-77
2022/10/20 06:43:59;;;;;;;5.90;4.00;;;13.00;55.90;;;;;;5024249;28;20035;-80
2022/10/20 06:46:28;;;;;;;10.55;4.18;;;13.10;55.70;;;;;;5033537;28;20033;-79
2022/10/20 06:48:53;;;;;;;9.15;3.78;;;13.10;55.50;;;;;;5022004;28;20487;-80
2022/10/20 06:51:23;;;;;;;8.90;3.45;;;13.20;55.50;;;;;;5028681;28;20095;-77
2022/10/20 06:53:50;;;;;;;5.75;3.47;;;13.20;55.30;;;;;;5028840;28;20500;-78
2022/10/20 06:56:27;;;;;;;6.38;3.50;;;13.30;55.10;;;;;;5038742;28;20124;-77
2022/10/20 06:58:55;;;;;;;6.50;3.42;;;13.40;55.00;;;;;;5023600;28;20036;-77
2022/10/20 07:01:25;;;;;;;6.13;3.17;;;13.50;54.90;;;;;;5048446;28;20025;-79
2022/10/20 07:03:57;;;;;;;5.07;3.22;;;13.50;54.60;;;;;;5053209;28;20047;-78
2022/10/20 07:06:31;;;;;;;3.80;2.85;;;13.60;54.50;;;;;;5036222;28;20028;-78
2022/10/20 07:09:00;;;;;;;6.93;2.92;;;13.70;54.30;;;;;;5035782;28;20037;-78
2022/10/20 07:11:28;;;;;;;8.02;3.20;;;13.70;54.10;;;;;;5054479;28;20346;-77
2022/10/20 07:13:54;;;;;;;6.60;2.75;;;13.80;53.80;;;;;;5054629;28;20021;-78
2022/10/20 07:16:23;;;;;;;6.07;3.00;;;13.90;53.70;;;;;;5055139;28;20061;-79
2022/10/20 07:18:49;;;;;;;11.80;4.85;;;13.90;53.30;;;;;;5054607;28;20044;-78
2022/10/20 07:21:20;;;;;;;6.47;3.85;;;14.00;53.30;;;;;;5036863;28;20507;-78
2022/10/20 07:23:50;;;;;;;6.40;2.63;;;14.00;53.20;;;;;;5055105;28;20543;-78
2022/10/20 07:26:24;;;;;;;4.13;2.42;;;14.10;53.10;;;;;;5054756;28;20464;-78
2022/10/20 07:28:55;;;;;;;5.15;2.90;;;14.20;52.70;;;;;;5054468;28;20045;-78
2022/10/20 07:31:33;;;;;;;3.17;2.13;;;14.20;52.60;;;;;;5054170;28;20497;-78
2022/10/20 07:34:01;;;;;;;4.00;2.13;;;14.30;52.10;;;;;;5037382;28;20028;-78
2022/10/20 07:36:31;;;;;;;6.20;3.10;;;14.40;51.50;;;;;;5036573;28;20028;-79
2022/10/20 07:39:00;;;;;;;5.55;2.33;;;14.40;51.20;;;;;;5036823;28;20076;-78
2022/10/20 07:41:28;;;;;;;4.53;1.90;;;14.50;51.00;;;;;;5036589;28;20029;-78
2022/10/20 07:44:03;;;;;;;2.95;1.88;;;14.50;50.40;;;;;;5054483;28;20043;-78
2022/10/20 07:46:29;;;;;;;2.63;1.80;;;14.50;50.50;;;;;;5054102;28;20036;-79
2022/10/20 07:48:55;;;;;;;3.22;1.80;;;14.50;50.10;;;;;;5054346;28;20033;-78
2022/10/20 07:51:23;;;;;;;3.67;1.80;;;14.50;50.40;;;;;;5036583;28;20098;-79
2022/10/20 07:53:54;;;;;;;4.65;2.00;;;14.50;50.10;;;;;;5036466;28;20103;-77
2022/10/20 07:56:20;;;;;;;5.38;1.98;;;14.60;50.50;;;;;;5054383;28;20089;-78
2022/10/20 07:58:49;;;;;;;6.15;2.30;;;14.60;50.40;;;;;;5054256;28;20033;-78
2022/10/20 08:01:15;;;;;;;7.13;2.20;;;14.60;50.30;;;;;;5053381;28;20053;-78
2022/10/20 08:03:41;;;;;;;6.07;2.13;;;14.70;49.80;;;;;;5053263;28;20037;-78
2022/10/20 08:06:07;;;;;;;7.90;2.30;;;14.70;50.10;;;;;;5052897;28;20108;-78
2022/10/20 08:08:33;;;;;;;7.47;2.25;;;14.80;50.00;;;;;;5035105;28;20036;-77
2022/10/20 08:10:59;;;;;;;2.78;2.05;;;14.80;49.50;;;;;;5034579;28;20040;-77
2022/10/20 08:13:26;;;;;;;3.08;2.03;;;14.80;49.40;;;;;;5052925;28;20028;-78
2022/10/20 08:15:52;;;;;;;4.30;2.13;;;14.90;49.70;;;;;;5053754;28;20025;-77
2022/10/20 08:18:18;;;;;;;4.35;2.30;;;14.90;49.80;;;;;;5053435;28;20029;-75
2022/10/20 08:20:44;;;;;;;5.60;2.17;;;15.00;49.90;;;;;;5052518;28;20514;-78
2022/10/20 08:23:12;;;;;;;3.38;1.95;;;15.10;50.00;;;;;;5052292;28;20028;-78
2022/10/20 08:25:38;;;;;;;5.93;2.35;;;15.10;49.40;;;;;;5034698;28;20029;-78
2022/10/20 08:28:04;;;;;;;3.10;1.70;;;15.20;49.60;;;;;;5052036;28;20029;-77
2022/10/20 08:30:33;;;;;;;4.00;2.33;;;15.30;49.50;;;;;;5053662;28;20021;-77
2022/10/20 08:33:01;;;;;;;2.58;1.50;;;15.40;49.40;;;;;;5036178;28;20056;-78
2022/10/20 08:35:27;;;;;;;4.05;1.92;;;15.40;49.40;;;;;;5036017;28;20027;-78
2022/10/20 08:41:27;;;;;;;4.10;1.65;;;15.60;49.30;;;;;;4992174;28;20551;-77
2022/10/20 08:44:03;;;;;;;2.83;1.57;;;15.70;48.50;;;;;;4990723;28;20038;-77
2022/10/20 08:46:36;;;;;;;2.47;1.67;;;15.70;48.60;;;;;;4992073;28;20038;-77
2022/10/20 08:49:06;;;;;;;4.68;2.22;;;15.80;48.60;;;;;;4991925;28;20052;-77
2022/10/20 08:51:37;;;;;;;3.45;2.25;;;15.90;48.00;;;;;;4991555;28;20233;-78
2022/10/20 08:54:04;;;;;;;4.97;1.85;;;16.00;48.00;;;;;;4978833;28;20042;-78
2022/10/20 08:56:33;;;;;;;4.60;1.92;;;16.00;48.20;;;;;;4955921;28;20165;-78
2022/10/20 08:59:02;;;;;;;3.42;1.60;;;16.10;47.90;;;;;;4971779;28;20407;-77
2022/10/20 09:01:33;;;;;;;4.45;1.90;;;16.20;48.20;;;;;;4985009;28;20525;-77
2022/10/20 09:04:24;;;;;;;3.25;1.85;;;16.20;47.50;;;;;;4991564;28;20045;-78
2022/10/20 09:06:55;;;;;;;3.53;2.00;;;16.30;47.40;;;;;;4991780;28;20035;-77
2022/10/20 09:09:22;;;;;;;5.78;1.75;;;16.30;47.20;;;;;;4990212;28;20042;-78
2022/10/20 09:11:54;;;;;;;6.07;1.70;;;16.30;47.10;;;;;;4982428;28;20039;-78
2022/10/20 09:14:32;;;;;;;3.33;1.60;;;16.30;46.90;;;;;;4972612;28;20030;-77
2022/10/20 09:16:58;;;;;;;4.47;1.77;;;16.30;47.10;;;;;;5001395;28;20030;-78
2022/10/20 09:19:24;;;;;;;3.03;1.48;;;16.30;46.80;;;;;;5053201;28;20071;-77
2022/10/20 09:22:02;;;;;;;3.65;1.73;;;16.30;47.20;;;;;;5035284;28;20053;-77
2022/10/20 09:24:30;;;;;;;8.38;1.52;;;16.30;47.10;;;;;;5052628;28;20027;-77
2022/10/20 09:27:15;;;;;;;4.78;1.67;;;16.30;46.70;;;;;;5035153;28;20028;-75
2022/10/20 09:29:44;;;;;;;4.75;1.70;;;16.30;47.40;;;;;;5035314;28;20051;-77
2022/10/20 09:32:31;;;;;;;9.40;1.65;;;16.40;47.60;;;;;;5052766;28;20445;-77
2022/10/20 09:35:19;;;;;;;5.43;1.88;;;16.40;47.40;;;;;;5053668;28;20021;-77
2022/10/20 09:37:52;;;;;;;6.05;1.73;;;16.50;47.70;;;;;;5053038;28;20036;-76
2022/10/20 09:40:21;;;;;;;4.13;2.17;;;16.50;47.00;;;;;;5052836;28;20025;-77
2022/10/20 09:42:57;;;;;;;6.50;1.80;;;16.50;46.90;;;;;;5052725;28;20082;-78
2022/10/20 09:45:27;;;;;;;3.10;1.50;;;16.50;47.20;;;;;;5052805;28;20082;-78
2022/10/20 09:48:22;;;;;;;3.08;1.70;;;16.60;47.80;;;;;;5052790;28;20029;-78
2022/10/20 09:50:54;;;;;;;7.35;1.60;;;16.70;48.00;;;;;;5053121;28;20380;-78
2022/10/20 09:53:32;;;;;;;7.82;2.50;;;16.70;47.70;;;;;;5035122;28;20029;-78
2022/10/20 09:55:58;;;;;;;6.10;2.33;;;16.80;47.70;;;;;;5035193;28;20029;-77
2022/10/20 09:58:33;;;;;;;3.40;1.70;;;16.80;47.30;;;;;;5052884;28;20040;-75
2022/10/20 10:01:11;;;;;;;2.50;1.70;;;16.90;47.10;;;;;;5041476;28;20331;-79
2022/10/20 10:03:45;;;;;;;6.43;1.95;;;17.00;47.20;;;;;;5034909;28;20032;-77
2022/10/20 10:06:31;;;;;;;3.10;1.60;;;17.00;47.50;;;;;;5052839;28;20116;-78
2022/10/20 10:09:01;;;;;;;4.50;1.55;;;17.10;47.60;;;;;;5052756;28;20033;-78
2022/10/20 10:11:36;;;;;;;2.85;1.58;;;17.20;47.70;;;;;;5052729;28;20025;-77
2022/10/20 10:14:02;;;;;;;6.93;2.03;;;17.20;48.00;;;;;;5056221;28;20033;-78
2022/10/20 10:16:40;;;;;;;5.57;2.05;;;17.30;47.80;;;;;;5038244;28;20032;-79
2022/10/20 10:19:06;;;;;;;3.20;1.90;;;17.30;47.60;;;;;;5054992;28;20084;-76
2022/10/20 10:21:53;;;;;;;7.63;2.53;;;17.40;48.10;;;;;;5054713;28;20036;-77
2022/10/20 10:24:34;;;;;;;6.60;2.30;;;17.50;48.10;;;;;;5037998;28;20539;-78
2022/10/20 10:27:01;;;;;;;4.47;3.05;;;17.50;47.90;;;;;;5055418;28;20025;-78
2022/10/20 10:29:34;;;;;;;6.22;2.55;;;17.60;48.10;;;;;;5055942;28;20489;-79
2022/10/20 10:32:15;;;;;;;7.97;3.13;;;17.60;47.90;;;;;;5055326;28;20017;-78
2022/10/20 10:35:03;;;;;;;6.55;3.33;;;17.70;47.90;;;;;;5037993;28;20025;-79
2022/10/20 10:37:30;;;;;;;6.15;2.53;;;17.80;48.10;;;;;;5035972;28;20072;-78
2022/10/20 10:39:58;;;;;;;4.35;2.35;;;17.90;48.00;;;;;;5035995;28;20032;-79
2022/10/20 10:42:42;;;;;;;7.80;2.75;;;18.00;47.90;;;;;;5035773;28;20033;-78
2022/10/20 10:45:23;;;;;;;7.63;3.75;;;18.00;47.90;;;;;;5022421;28;20025;-78
2022/10/20 10:48:04;;;;;;;5.63;3.13;;;18.10;48.20;;;;;;5056060;28;20477;-78
2022/10/20 10:50:59;;;;;;;7.20;3.35;;;18.10;47.80;;;;;;5050697;28;20106;-78
2022/10/20 10:54:00;;;;;;;8.55;4.20;;;18.20;47.60;;;;;;5013550;28;20064;-78
2022/10/20 10:56:37;;;;;;;6.50;2.97;;;18.30;47.80;;;;;;5055664;28;20032;-78
2022/10/20 10:59:06;;;;;;;4.80;3.10;;;18.40;47.70;;;;;;5064006;28;20032;-79
2022/10/20 11:02:00;;;;;;;5.35;2.83;;;18.40;47.50;;;;;;5037457;28;20456;-79
2022/10/20 11:05:03;;;;;;;15.50;3.80;;;18.40;47.50;;;;;;5032981;28;20488;-78
2022/10/20 11:07:51;;;;;;;6.47;3.35;;;18.50;47.50;;;;;;5035342;28;20029;-77
2022/10/20 11:10:33;;;;;;;8.55;3.95;;;18.50;47.60;;;;;;5063599;28;20025;-78
2022/10/20 11:13:18;;;;;;;7.80;3.40;;;18.50;47.20;;;;;;5044095;28;20021;-78
2022/10/20 11:16:16;;;;;;;9.43;4.15;;;18.50;47.10;;;;;;5017111;28;20029;-78
2022/10/20 11:18:50;;;;;;;7.80;3.10;;;18.50;47.30;;;;;;5046623;28;20381;-79
2022/10/20 11:21:25;;;;;;;12.63;4.60;;;18.50;47.30;;;;;;5034973;28;20037;-79
2022/10/20 11:24:22;;;;;;;12.25;4.30;;;18.60;47.30;;;;;;5016717;28;20067;-79
2022/10/20 11:26:55;;;;;;;12.27;4.28;;;18.60;47.30;;;;;;5051951;28;20368;-79
2022/10/20 11:29:36;;;;;;;9.48;4.38;;;18.60;47.20;;;;;;5054636;28;20033;-78
2022/10/20 11:32:25;;;;;;;9.40;5.22;;;18.60;47.00;;;;;;5054044;28;20031;-79
2022/10/20 11:35:17;;;;;;;12.15;4.28;;;18.60;47.20;;;;;;5036903;28;20033;-79
2022/10/20 11:38:17;;;;;;;9.95;4.95;;;18.60;47.00;;;;;;5036704;28;20068;-79
2022/10/20 11:40:51;;;;;;;13.82;5.80;;;18.60;47.20;;;;;;5052776;28;20385;-79
2022/10/20 11:43:25;;;;;;;9.57;5.45;;;18.60;47.30;;;;;;5054683;28;20028;-78
2022/10/20 11:46:02;;;;;;;9.95;4.32;;;18.60;47.60;;;;;;5054648;28;20033;-78
2022/10/20 11:48:44;;;;;;;9.00;4.72;;;18.60;47.40;;;;;;5036536;28;20044;-79
2022/10/20 11:51:25;;;;;;;9.93;4.80;;;18.60;47.20;;;;;;5036480;28;20377;-79
2022/10/20 11:54:13;;;;;;;11.98;7.45;;;18.70;47.20;;;;;;5035431;28;20119;-78
2022/10/20 11:56:52;;;;;;;9.15;5.30;;;18.70;47.30;;;;;;5034160;28;20072;-78
2022/10/20 11:59:39;;;;;;;9.18;5.32;;;18.70;47.30;;;;;;5050954;28;20060;-77
2022/10/20 12:02:14;;;;;;;14.25;4.53;;;18.70;46.90;;;;;;5074337;28;20119;-77
2022/10/20 12:05:15;;;;;;;11.68;5.00;;;18.70;46.70;;;;;;5074034;28;20437;-78
2022/10/20 12:07:50;;;;;;;6.68;4.05;;;18.70;46.30;;;;;;5073814;28;20032;-79
2022/10/20 12:10:48;;;;;;;7.85;4.90;;;18.60;46.20;;;;;;5074495;28;20111;-78
2022/10/20 12:13:34;;;;;;;6.82;3.72;;;18.60;46.30;;;;;;5034848;28;20022;-78
2022/10/20 12:16:03;;;;;;;13.13;4.43;;;18.60;46.70;;;;;;5016462;28;20028;-77
2022/10/20 12:18:33;;;;;;;10.77;4.95;;;18.70;47.20;;;;;;5033944;28;20037;-77
2022/10/20 12:21:08;;;;;;;9.30;4.90;;;18.70;47.30;;;;;;5032778;28;20025;-77
2022/10/20 12:23:48;;;;;;;7.53;4.15;;;18.70;46.70;;;;;;5047153;28;20028;-76
2022/10/20 12:26:29;;;;;;;7.80;4.50;;;18.70;46.70;;;;;;5052904;28;20025;-75
2022/10/20 12:28:56;;;;;;;7.60;4.75;;;18.70;47.00;;;;;;5035747;28;20041;-76
2022/10/20 12:31:22;;;;;;;11.27;4.90;;;18.80;46.50;;;;;;5035276;28;20469;-76
2022/10/20 12:33:48;;;;;;;5.35;4.03;;;18.70;46.40;;;;;;5048555;28;20026;-76
2022/10/20 12:36:17;;;;;;;6.93;4.45;;;18.70;46.70;;;;;;5033312;28;20025;-75
2022/10/20 12:38:52;;;;;;;9.52;4.35;;;18.80;46.60;;;;;;5015883;28;20041;-76
2022/10/20 12:41:34;;;;;;;7.88;3.80;;;18.80;47.00;;;;;;5038979;28;20028;-76
2022/10/20 12:44:05;;;;;;;6.10;4.18;;;18.80;46.40;;;;;;5033597;28;20108;-75
2022/10/20 12:46:34;;;;;;;3.88;2.92;;;18.80;46.40;;;;;;5033758;28;20076;-75
2022/10/20 12:49:04;;;;;;;6.22;3.55;;;18.80;46.30;;;;;;5033409;28;20029;-75
2022/10/20 12:51:40;;;;;;;8.23;3.58;;;18.90;46.40;;;;;;5029112;28;20521;-75
2022/10/20 12:54:18;;;;;;;6.07;3.58;;;18.90;46.30;;;;;;5050612;28;20088;-76
2022/10/20 12:56:44;;;;;;;6.38;3.30;;;18.90;46.20;;;;;;5022650;28;20037;-74
2022/10/20 12:59:28;;;;;;;8.70;3.33;;;18.90;46.00;;;;;;5041539;28;20029;-74
2022/10/20 13:02:09;;;;;;;8.63;3.75;;;18.90;46.10;;;;;;5015465;28;20082;-73
2022/10/20 13:04:56;;;;;;;8.27;3.55;;;19.00;45.80;;;;;;5044628;28;20052;-75
2022/10/20 13:07:47;;;;;;;8.45;4.25;;;19.00;46.10;;;;;;5051662;28;20039;-75
2022/10/20 13:10:31;;;;;;;9.18;4.30;;;19.00;46.20;;;;;;5053494;28;20453;-75
2022/10/20 13:13:17;;;;;;;9.25;4.82;;;19.00;46.40;;;;;;5053233;28;20370;-76
2022/10/20 13:15:46;;;;;;;7.20;4.15;;;19.00;46.40;;;;;;5012676;28;20033;-75